createdAt,value
2019-02-08T00:01:36.540Z,2.63
2019-02-08T00:04:05.980Z,2.80
2019-02-08T00:06:35.338Z,2.70
2019-02-08T00:09:08.559Z,2.70
2019-02-08T00:11:38.085Z,2.00
2019-02-08T00:14:07.746Z,2.43
2019-02-08T00:16:37.033Z,2.30
2019-02-08T00:19:06.517Z,2.17
2019-02-08T00:21:35.859Z,2.63
2019-02-08T00:24:06.011Z,2.37
2019-02-08T00:26:35.303Z,2.30
2019-02-08T00:29:04.852Z,2.10
2019-02-08T00:31:34.534Z,2.70
2019-02-08T00:34:03.893Z,2.27
2019-02-08T00:36:33.516Z,2.50
2019-02-08T00:39:02.893Z,2.20
2019-02-08T00:41:32.158Z,2.30
2019-02-08T00:44:01.431Z,2.43
2019-02-08T00:46:31.085Z,2.10
2019-02-08T00:49:00.427Z,2.47
2019-02-08T00:51:30.078Z,2.00
2019-02-08T00:53:59.518Z,3.03
2019-02-08T00:56:28.889Z,2.60
2019-02-08T00:58:58.517Z,2.73
2019-02-08T01:01:28.034Z,2.13
2019-02-08T01:03:57.661Z,2.70
2019-02-08T01:06:27.291Z,2.13
2019-02-08T01:08:56.909Z,2.33
2019-02-08T01:11:26.273Z,2.50
2019-02-08T01:13:55.931Z,2.20
2019-02-08T01:16:26.501Z,2.30
2019-02-08T01:18:55.945Z,2.50
2019-02-08T01:21:25.233Z,2.40
2019-02-08T01:23:54.861Z,2.47
2019-02-08T01:26:24.226Z,2.47
2019-02-08T01:28:53.585Z,2.40
2019-02-08T01:31:23.521Z,2.57
2019-02-08T01:33:52.873Z,2.30
2019-02-08T01:36:22.779Z,2.40
2019-02-08T01:38:52.214Z,2.07
2019-02-08T01:41:21.758Z,3.30
2019-02-08T01:43:51.104Z,2.80
2019-02-08T01:46:20.711Z,2.87
2019-02-08T01:48:50.352Z,2.40
2019-02-08T01:51:19.698Z,2.37
2019-02-08T01:53:49.016Z,2.40
2019-02-08T01:56:18.636Z,2.90
2019-02-08T01:58:47.994Z,2.43
2019-02-08T02:01:17.505Z,2.80
2019-02-08T02:03:46.842Z,2.80
2019-02-08T02:06:16.462Z,2.67
2019-02-08T02:08:46.109Z,2.50
2019-02-08T02:11:15.742Z,2.30
2019-02-08T02:13:44.970Z,2.87
2019-02-08T02:16:14.445Z,2.77
2019-02-08T02:18:43.740Z,2.50
2019-02-08T02:21:13.127Z,2.90
2019-02-08T02:23:42.784Z,2.43
2019-02-08T02:26:12.126Z,2.60
2019-02-08T02:28:41.402Z,3.10
2019-02-08T02:31:10.802Z,2.50
2019-02-08T02:33:40.096Z,2.80
2019-02-08T02:36:09.462Z,2.90
2019-02-08T02:38:39.072Z,2.70
2019-02-08T02:41:08.444Z,3.20
2019-02-08T02:43:37.772Z,3.03
2019-02-08T02:46:07.110Z,2.67
2019-02-08T02:48:36.473Z,2.67
2019-02-08T02:51:05.831Z,2.80
2019-02-08T02:53:35.496Z,3.20
2019-02-08T02:56:05.422Z,3.20
2019-02-08T02:58:34.758Z,2.70
2019-02-08T03:01:04.580Z,3.50
2019-02-08T03:03:34.215Z,3.60
2019-02-08T03:06:03.480Z,3.07
2019-02-08T03:08:33.089Z,3.57
2019-02-08T03:11:02.376Z,3.27
2019-02-08T03:13:31.985Z,3.90
2019-02-08T03:16:01.394Z,3.43
2019-02-08T03:18:30.753Z,3.63
2019-02-08T03:21:00.413Z,3.27
2019-02-08T03:23:29.810Z,3.30
2019-02-08T03:25:59.152Z,3.53
2019-02-08T03:28:28.777Z,3.87
2019-02-08T03:30:58.944Z,3.67
2019-02-08T03:33:28.546Z,4.00
2019-02-08T03:35:58.165Z,3.37
2019-02-08T03:38:28.601Z,3.40
2019-02-08T03:40:58.173Z,3.57
2019-02-08T03:43:28.097Z,4.07
2019-02-08T03:45:57.465Z,3.40
2019-02-08T03:48:27.036Z,4.27
2019-02-08T03:50:56.404Z,3.63
2019-02-08T03:53:26.388Z,4.23
2019-02-08T03:55:58.310Z,4.23
2019-02-08T03:58:26.872Z,4.87
2019-02-08T04:01:05.923Z,3.80
2019-02-08T04:03:35.289Z,4.40
2019-02-08T04:06:05.143Z,3.90
2019-02-08T04:08:34.567Z,4.33
2019-02-08T04:11:04.095Z,4.60
2019-02-08T04:13:33.380Z,4.63
2019-02-08T04:16:02.768Z,4.27
2019-02-08T04:18:32.147Z,4.60
2019-02-08T04:21:01.814Z,4.87
2019-02-08T04:23:31.404Z,4.63
2019-02-08T04:26:01.047Z,4.77
2019-02-08T04:28:30.320Z,5.30
2019-02-08T04:30:59.730Z,5.20
2019-02-08T04:33:29.024Z,4.93
2019-02-08T04:35:58.353Z,5.10
2019-02-08T04:38:27.684Z,5.37
2019-02-08T04:40:57.036Z,5.40
2019-02-08T04:43:26.289Z,5.60
2019-02-08T04:45:55.658Z,5.83
2019-02-08T04:48:25.294Z,5.03
2019-02-08T04:50:54.600Z,5.43
2019-02-08T04:53:23.933Z,5.30
2019-02-08T04:55:53.285Z,5.93
2019-02-08T04:58:22.820Z,5.27
2019-02-08T05:00:52.410Z,5.47
2019-02-08T05:03:21.770Z,5.50
2019-02-08T05:05:51.042Z,5.77
2019-02-08T05:08:20.442Z,5.70
2019-02-08T05:10:49.789Z,6.23
2019-02-08T05:13:19.051Z,5.57
2019-02-08T05:15:48.709Z,5.73
2019-02-08T05:18:18.066Z,5.63
2019-02-08T05:20:47.646Z,6.87
2019-02-08T05:23:17.127Z,5.37
2019-02-08T05:25:46.410Z,6.30
2019-02-08T05:28:15.783Z,5.57
2019-02-08T05:30:45.336Z,5.60
2019-02-08T05:33:14.700Z,5.97
2019-02-08T05:35:44.048Z,5.53
2019-02-08T05:38:13.668Z,5.70
2019-02-08T05:40:43.073Z,5.80
2019-02-08T05:43:12.410Z,5.70
2019-02-08T05:45:41.797Z,5.70
2019-02-08T05:48:11.431Z,5.63
2019-02-08T05:50:40.795Z,6.07
2019-02-08T05:53:10.100Z,5.90
2019-02-08T05:55:39.719Z,5.47
2019-02-08T05:58:09.341Z,5.47
2019-02-08T06:00:50.267Z,5.20
2019-02-08T06:03:19.626Z,4.57
2019-02-08T06:05:48.904Z,4.83
2019-02-08T06:08:18.424Z,5.20
2019-02-08T06:10:48.372Z,4.87
2019-02-08T06:13:18.008Z,4.90
2019-02-08T06:15:47.348Z,4.70
2019-02-08T06:18:17.002Z,4.67
2019-02-08T06:20:46.936Z,4.33
2019-02-08T06:23:16.249Z,4.80
2019-02-08T06:25:45.598Z,4.60
2019-02-08T06:28:14.868Z,4.07
2019-02-08T06:30:44.285Z,4.13
2019-02-08T06:33:13.873Z,4.23
2019-02-08T06:35:43.478Z,4.00
2019-02-08T06:38:17.573Z,3.90
2019-02-08T06:40:49.815Z,4.43
2019-02-08T06:43:19.219Z,4.20
2019-02-08T06:45:52.151Z,3.93
2019-02-08T06:48:24.829Z,3.63
2019-02-08T06:50:54.190Z,3.63
2019-02-08T06:53:23.830Z,3.97
2019-02-08T06:55:53.886Z,3.63
2019-02-08T06:58:54.651Z,3.87
2019-02-08T07:01:54.701Z,3.33
2019-02-08T07:04:38.021Z,3.80
2019-02-08T07:07:29.153Z,3.90
2019-02-08T07:10:19.958Z,3.83
2019-02-08T07:12:59.189Z,4.00
2019-02-08T07:15:45.121Z,4.97
2019-02-08T07:18:33.471Z,4.40
2019-02-08T07:21:20.685Z,4.30
2019-02-08T07:24:06.756Z,4.00
2019-02-08T07:26:47.765Z,3.57
2019-02-08T07:29:31.985Z,3.50
2019-02-08T07:32:23.283Z,3.67
2019-02-08T07:35:20.983Z,3.90
2019-02-08T07:38:08.051Z,4.00
2019-02-08T07:41:04.406Z,3.70
2019-02-08T07:43:52.925Z,3.83
2019-02-08T07:46:32.701Z,3.70
2019-02-08T07:49:10.995Z,3.53
2019-02-08T07:52:05.607Z,4.13
2019-02-08T07:54:53.163Z,3.90
2019-02-08T07:57:40.480Z,4.00
2019-02-08T08:00:32.111Z,4.27
2019-02-08T08:03:15.801Z,3.80
2019-02-08T08:06:07.131Z,3.50
2019-02-08T08:08:53.140Z,3.20
2019-02-08T08:11:31.923Z,3.30
2019-02-08T08:14:13.253Z,3.33
2019-02-08T08:17:16.619Z,3.10
2019-02-08T08:20:20.690Z,3.17
2019-02-08T08:23:12.286Z,3.83
2019-02-08T08:26:02.623Z,3.43
2019-02-08T08:28:50.942Z,3.00
2019-02-08T08:31:24.699Z,2.93
2019-02-08T08:34:06.132Z,3.27
2019-02-08T08:37:37.736Z,3.67
2019-02-08T08:40:48.239Z,3.17
2019-02-08T08:43:50.551Z,2.90
2019-02-08T08:46:50.592Z,3.00
2019-02-08T08:50:10.027Z,3.07
2019-02-08T08:53:10.966Z,3.00
2019-02-08T08:56:07.226Z,2.80
2019-02-08T08:58:53.253Z,3.20
2019-02-08T09:01:59.448Z,3.20
2019-02-08T09:05:05.766Z,2.97
2019-02-08T09:08:14.852Z,2.57
2019-02-08T09:11:28.498Z,2.50
2019-02-08T09:14:36.130Z,2.50
2019-02-08T09:17:34.828Z,2.90
2019-02-08T09:20:40.752Z,2.60
2019-02-08T09:23:40.614Z,2.90
2019-02-08T09:26:56.232Z,2.30
2019-02-08T09:30:04.752Z,2.17
2019-02-08T09:33:06.235Z,2.10
2019-02-08T09:36:14.168Z,1.70
2019-02-08T09:39:24.126Z,2.07
2019-02-08T09:42:29.447Z,2.23
2019-02-08T09:45:30.267Z,2.00
2019-02-08T09:48:27.449Z,2.20
2019-02-08T09:51:18.187Z,1.70
2019-02-08T09:54:23.251Z,1.90
2019-02-08T09:57:17.291Z,1.90
2019-02-08T10:00:05.370Z,2.03
2019-02-08T10:03:22.518Z,2.00
2019-02-08T10:06:41.831Z,1.73
2019-02-08T10:09:55.097Z,1.90
2019-02-08T10:13:01.030Z,1.80
2019-02-08T10:16:20.862Z,1.73
2019-02-08T10:19:40.132Z,1.77
2019-02-08T10:22:45.405Z,2.40
2019-02-08T10:25:42.430Z,1.80
2019-02-08T10:28:59.107Z,1.70
2019-02-08T10:32:14.159Z,2.00
2019-02-08T10:35:25.030Z,1.70
2019-02-08T10:38:53.584Z,1.97
2019-02-08T10:42:02.320Z,1.80
2019-02-08T10:45:11.656Z,1.90
2019-02-08T10:48:36.231Z,1.90
2019-02-08T10:51:41.178Z,1.93
2019-02-08T10:54:25.496Z,1.80
2019-02-08T10:57:46.492Z,1.97
2019-02-08T11:00:55.786Z,2.00
2019-02-08T11:04:18.115Z,2.10
2019-02-08T11:07:39.186Z,2.17
2019-02-08T11:10:43.789Z,2.20
2019-02-08T11:13:57.143Z,1.80
2019-02-08T11:17:28.608Z,1.90
2019-02-08T11:19:58.134Z,2.00
2019-02-08T11:22:27.499Z,1.80
2019-02-08T11:25:16.005Z,2.17
2019-02-08T11:27:46.069Z,2.27
2019-02-08T11:30:16.801Z,2.27
2019-02-08T11:32:46.221Z,2.00
2019-02-08T11:35:15.977Z,2.23
2019-02-08T11:37:45.673Z,2.20
2019-02-08T11:40:22.025Z,1.87
2019-02-08T11:42:51.426Z,2.00
2019-02-08T11:45:21.308Z,2.67
2019-02-08T11:47:50.848Z,2.47
2019-02-08T11:50:21.061Z,2.27
2019-02-08T11:52:50.684Z,3.90
2019-02-08T11:55:20.021Z,2.87
2019-02-08T11:57:49.503Z,3.23
2019-02-08T12:00:30.856Z,2.40
2019-02-08T12:03:00.312Z,2.77
2019-02-08T12:05:29.678Z,2.70
2019-02-08T12:07:59.889Z,2.83
2019-02-08T12:10:29.289Z,2.60
2019-02-08T12:12:58.914Z,2.20
2019-02-08T12:15:28.499Z,2.67
2019-02-08T12:17:58.095Z,2.77
2019-02-08T12:20:27.730Z,3.17
2019-02-08T12:22:57.116Z,2.60
2019-02-08T12:25:26.794Z,2.87
2019-02-08T12:27:56.078Z,2.50
2019-02-08T12:30:28.928Z,2.60
2019-02-08T12:32:58.335Z,3.37
2019-02-08T12:35:27.640Z,2.70
2019-02-08T12:37:57.263Z,2.50
2019-02-08T12:40:26.666Z,2.70
2019-02-08T12:42:55.964Z,2.40
2019-02-08T12:45:26.254Z,2.83
2019-02-08T12:47:55.628Z,2.80
2019-02-08T12:50:24.944Z,3.07
2019-02-08T12:52:54.150Z,2.97
2019-02-08T12:55:23.580Z,2.70
2019-02-08T12:57:52.816Z,2.63
2019-02-08T13:00:22.455Z,2.77
2019-02-08T13:02:52.207Z,3.23
2019-02-08T13:05:21.950Z,2.93
2019-02-08T13:07:51.814Z,2.57
2019-02-08T13:10:23.151Z,2.70
2019-02-08T13:12:52.899Z,2.90
2019-02-08T13:15:22.377Z,2.97
2019-02-08T13:17:51.790Z,2.23
2019-02-08T13:20:21.508Z,3.27
2019-02-08T13:22:51.162Z,3.00
2019-02-08T13:25:20.675Z,3.17
2019-02-08T13:27:50.416Z,3.17
2019-02-08T13:30:22.241Z,2.90
2019-02-08T13:32:51.722Z,2.70
2019-02-08T13:35:21.434Z,2.50
2019-02-08T13:37:52.302Z,2.63
2019-02-08T13:40:22.030Z,3.07
2019-02-08T13:42:51.371Z,2.67
2019-02-08T13:45:21.355Z,2.70
2019-02-08T13:47:50.925Z,2.60
2019-02-08T13:50:22.583Z,2.93
2019-02-08T13:52:52.042Z,2.40
2019-02-08T13:55:22.918Z,2.90
2019-02-08T13:57:52.587Z,2.80
2019-02-08T14:00:25.219Z,2.70
2019-02-08T14:02:54.603Z,2.70
2019-02-08T14:05:24.261Z,3.37
2019-02-08T14:07:53.880Z,3.20
2019-02-08T14:10:23.382Z,3.23
2019-02-08T14:12:53.097Z,2.73
2019-02-08T14:15:23.029Z,2.70
2019-02-08T14:17:53.054Z,2.90
2019-02-08T14:20:23.829Z,2.60
2019-02-08T14:22:53.694Z,2.40
2019-02-08T14:25:23.461Z,2.40
2019-02-08T14:27:52.835Z,2.67
2019-02-08T14:30:25.200Z,2.40
2019-02-08T14:32:55.922Z,2.63
2019-02-08T14:35:25.436Z,2.97
2019-02-08T14:37:55.087Z,2.33
2019-02-08T14:40:24.625Z,2.70
2019-02-08T14:42:54.267Z,2.30
2019-02-08T14:45:24.001Z,2.30
2019-02-08T14:47:53.307Z,3.37
2019-02-08T14:50:23.897Z,2.00
2019-02-08T14:52:53.846Z,2.40
2019-02-08T14:55:23.526Z,2.63
2019-02-08T14:57:53.593Z,2.93
2019-02-08T15:00:23.135Z,2.70
2019-02-08T15:02:52.855Z,2.63
2019-02-08T15:05:22.337Z,2.57
2019-02-08T15:07:51.713Z,2.60
2019-02-08T15:10:26.286Z,2.50
2019-02-08T15:12:55.901Z,2.20
2019-02-08T15:15:25.832Z,2.40
2019-02-08T15:17:57.924Z,2.53
2019-02-08T15:20:29.291Z,2.60
2019-02-08T15:22:58.821Z,2.37
2019-02-08T15:25:28.200Z,2.13
2019-02-08T15:27:57.959Z,2.10
2019-02-08T15:30:29.448Z,2.20
2019-02-08T15:32:58.864Z,2.10
2019-02-08T15:35:31.756Z,1.90
2019-02-08T15:38:02.580Z,1.93
2019-02-08T15:40:34.622Z,1.90
2019-02-08T15:43:04.024Z,2.63
2019-02-08T15:45:33.762Z,2.10
2019-02-08T15:48:03.406Z,1.93
2019-02-08T15:50:32.770Z,1.87
2019-02-08T15:53:05.213Z,1.90
2019-02-08T15:55:36.163Z,2.57
2019-02-08T15:58:06.024Z,2.23
2019-02-08T16:00:35.684Z,10.40
2019-02-08T16:03:07.010Z,2.27
2019-02-08T16:05:36.326Z,3.33
2019-02-08T16:08:05.991Z,2.20
2019-02-08T16:10:35.912Z,2.20
2019-02-08T16:13:05.699Z,2.30
2019-02-08T16:15:35.341Z,2.40
2019-02-08T16:18:05.989Z,2.13
2019-02-08T16:20:35.598Z,2.30
2019-02-08T16:23:05.901Z,2.13
2019-02-08T16:25:35.282Z,2.30
2019-02-08T16:28:04.985Z,2.60
2019-02-08T16:30:34.530Z,2.10
2019-02-08T16:33:04.366Z,3.00
2019-02-08T16:35:33.721Z,2.93
2019-02-08T16:38:03.046Z,2.83
2019-02-08T16:40:32.384Z,3.00
2019-02-08T16:43:02.079Z,2.20
2019-02-08T16:45:33.122Z,2.30
2019-02-08T16:48:03.155Z,2.70
2019-02-08T16:50:32.972Z,2.80
2019-02-08T16:53:02.952Z,2.50
2019-02-08T16:55:32.336Z,2.60
2019-02-08T16:58:02.007Z,2.90
2019-02-08T17:00:33.466Z,3.03
2019-02-08T17:03:06.079Z,2.47
2019-02-08T17:05:35.816Z,2.53
2019-02-08T17:08:05.395Z,3.70
2019-02-08T17:10:35.377Z,2.70
2019-02-08T17:13:04.920Z,3.00
2019-02-08T17:15:34.685Z,2.93
2019-02-08T17:18:04.204Z,2.40
2019-02-08T17:20:35.890Z,2.70
2019-02-08T17:23:05.871Z,2.90
2019-02-08T17:25:35.339Z,2.67
2019-02-08T17:28:07.223Z,2.70
2019-02-08T17:30:36.798Z,3.50
2019-02-08T17:33:10.019Z,4.40
2019-02-08T17:35:39.863Z,2.43
2019-02-08T17:38:10.778Z,2.50
2019-02-08T17:40:42.081Z,2.70
2019-02-08T17:43:11.539Z,3.17
2019-02-08T17:45:41.085Z,2.47
2019-02-08T17:48:13.565Z,2.80
2019-02-08T17:50:43.260Z,2.70
2019-02-08T17:53:12.776Z,2.20
2019-02-08T17:55:42.475Z,2.90
2019-02-08T17:58:11.755Z,2.60
2019-02-08T18:00:47.905Z,2.20
2019-02-08T18:03:17.529Z,3.03
2019-02-08T18:05:47.199Z,2.50
2019-02-08T18:08:16.827Z,2.40
2019-02-08T18:10:46.412Z,2.30
2019-02-08T18:13:17.116Z,2.40
2019-02-08T18:15:46.853Z,3.93
2019-02-08T18:18:21.070Z,2.30
2019-02-08T18:20:53.098Z,2.53
2019-02-08T18:23:22.453Z,2.57
2019-02-08T18:25:51.745Z,2.50
2019-02-08T18:28:21.120Z,2.57
2019-02-08T18:30:51.031Z,2.10
2019-02-08T18:33:20.651Z,2.20
2019-02-08T18:35:49.918Z,2.40
2019-02-08T18:38:21.718Z,1.93
2019-02-08T18:40:51.033Z,2.23
2019-02-08T18:43:20.452Z,2.40
2019-02-08T18:45:49.816Z,2.30
2019-02-08T18:48:19.153Z,2.23
2019-02-08T18:50:50.650Z,2.53
2019-02-08T18:53:20.008Z,2.10
2019-02-08T18:55:49.594Z,2.27
2019-02-08T18:58:19.573Z,2.47
2019-02-08T19:00:49.982Z,2.33
2019-02-08T19:03:19.708Z,3.33
2019-02-08T19:05:49.110Z,2.13
2019-02-08T19:08:19.693Z,2.77
2019-02-08T19:10:48.992Z,2.70
2019-02-08T19:13:20.362Z,2.63
2019-02-08T19:15:49.947Z,2.80
2019-02-08T19:18:19.587Z,2.60
2019-02-08T19:20:49.190Z,2.30
2019-02-08T19:23:18.751Z,2.50
2019-02-08T19:25:48.136Z,2.30
2019-02-08T19:28:18.131Z,2.70
2019-02-08T19:30:47.670Z,2.40
2019-02-08T19:33:17.323Z,2.70
2019-02-08T19:35:47.017Z,2.83
2019-02-08T19:38:16.477Z,2.30
2019-02-08T19:40:46.782Z,3.03
2019-02-08T19:43:16.126Z,2.30
2019-02-08T19:45:46.047Z,2.47
2019-02-08T19:48:15.432Z,2.57
2019-02-08T19:50:45.839Z,2.50
2019-02-08T19:53:15.470Z,2.30
2019-02-08T19:55:44.824Z,2.90
2019-02-08T19:58:14.834Z,2.53
2019-02-08T20:00:44.562Z,2.60
2019-02-08T20:03:13.934Z,2.60
2019-02-08T20:05:43.435Z,2.73
2019-02-08T20:08:13.943Z,2.73
2019-02-08T20:10:45.378Z,2.47
2019-02-08T20:13:14.755Z,2.70
2019-02-08T20:15:44.248Z,2.00
2019-02-08T20:18:14.182Z,2.40
2019-02-08T20:20:43.718Z,3.30
2019-02-08T20:23:13.696Z,2.77
2019-02-08T20:25:43.323Z,2.70
2019-02-08T20:28:12.838Z,2.47
2019-02-08T20:30:42.498Z,3.00
2019-02-08T20:33:11.837Z,2.80
2019-02-08T20:35:41.255Z,2.47
2019-02-08T20:38:10.956Z,2.70
2019-02-08T20:40:42.688Z,3.23
2019-02-08T20:43:12.020Z,2.50
2019-02-08T20:45:41.391Z,2.70
2019-02-08T20:48:13.494Z,3.40
2019-02-08T20:50:43.167Z,2.10
2019-02-08T20:53:12.562Z,2.47
2019-02-08T20:55:41.945Z,2.53
2019-02-08T20:58:12.504Z,2.10
2019-02-08T21:00:44.552Z,2.50
2019-02-08T21:03:15.079Z,2.50
2019-02-08T21:05:46.200Z,2.67
2019-02-08T21:08:16.488Z,2.50
2019-02-08T21:10:45.981Z,2.50
2019-02-08T21:13:15.481Z,2.50
2019-02-08T21:15:44.833Z,2.77
2019-02-08T21:18:14.753Z,2.70
2019-02-08T21:20:46.154Z,2.57
2019-02-08T21:23:16.179Z,2.67
2019-02-08T21:25:51.764Z,2.53
2019-02-08T21:28:16.647Z,2.77
2019-02-08T21:30:46.206Z,2.73
2019-02-08T21:33:15.937Z,2.80
2019-02-08T21:35:45.723Z,2.93
2019-02-08T21:38:15.331Z,2.80
2019-02-08T21:40:45.067Z,3.43
2019-02-08T21:43:15.094Z,2.87
2019-02-08T21:45:45.452Z,3.23
2019-02-08T21:48:26.191Z,3.10
2019-02-08T21:50:56.193Z,2.80
2019-02-08T21:53:26.260Z,2.97
2019-02-08T21:55:56.518Z,3.00
2019-02-08T21:58:25.791Z,3.00
2019-02-08T22:00:55.057Z,2.80
2019-02-08T22:03:24.399Z,3.00
2019-02-08T22:05:59.633Z,3.23
2019-02-08T22:08:28.982Z,3.67
2019-02-08T22:10:58.336Z,3.10
2019-02-08T22:13:27.958Z,2.90
2019-02-08T22:15:57.293Z,3.37
2019-02-08T22:18:26.946Z,3.47
2019-02-08T22:20:56.275Z,3.43
2019-02-08T22:23:25.966Z,3.23
2019-02-08T22:25:55.335Z,3.20
2019-02-08T22:28:24.672Z,3.00
2019-02-08T22:30:54.070Z,3.00
2019-02-08T22:33:23.703Z,3.23
2019-02-08T22:35:53.263Z,3.57
2019-02-08T22:38:22.930Z,3.63
2019-02-08T22:40:52.261Z,2.97
2019-02-08T22:43:21.602Z,3.30
2019-02-08T22:45:50.980Z,2.93
2019-02-08T22:48:20.810Z,3.20
2019-02-08T22:50:50.161Z,3.10
2019-02-08T22:53:19.636Z,3.07
2019-02-08T22:55:48.995Z,3.10
2019-02-08T22:58:18.319Z,2.93
2019-02-08T23:01:29.937Z,3.40
2019-02-08T23:04:00.626Z,3.13
2019-02-08T23:06:29.986Z,3.13
2019-02-08T23:09:00.574Z,2.97
2019-02-08T23:11:30.509Z,3.20
2019-02-08T23:13:59.868Z,2.73
2019-02-08T23:16:29.531Z,2.60
2019-02-08T23:18:58.992Z,2.90
2019-02-08T23:21:28.353Z,2.37
2019-02-08T23:23:57.905Z,2.63
2019-02-08T23:26:27.261Z,2.70
2019-02-08T23:28:56.452Z,2.83
2019-02-08T23:31:25.783Z,2.60
2019-02-08T23:33:55.116Z,3.07
2019-02-08T23:36:24.659Z,2.70
2019-02-08T23:38:54.321Z,3.07
2019-02-08T23:41:23.961Z,2.80
2019-02-08T23:43:53.221Z,3.03
2019-02-08T23:46:22.830Z,3.10
2019-02-08T23:48:52.712Z,3.00
2019-02-08T23:51:22.327Z,2.80
2019-02-08T23:53:51.728Z,3.10
2019-02-08T23:56:21.070Z,3.67
2019-02-08T23:58:50.350Z,3.47
